sensor_id;sensor_type;location;lat;lon;timestamp;P1;durP1;ratioP1;P2;durP2;ratioP2
14056;SDS011;7103;54.300;10.180;2023-08-12T00:00:18;0.30;;;0.30;;
14056;SDS011;7103;54.300;10.180;2023-08-12T00:02:46;0.30;;;0.30;;
14056;SDS011;7103;54.300;10.180;2023-08-12T00:05:13;0.30;;;0.30;;
14056;SDS011;7103;54.300;10.180;2023-08-12T00:07:40;0.30;;;0.30;;
14056;SDS011;7103;54.300;10.180;2023-08-12T00:10:09;0.40;;;0.40;;
14056;SDS011;7103;54.300;10.180;2023-08-12T00:12:37;0.30;;;0.30;;
14056;SDS011;7103;54.300;10.180;2023-08-12T00:15:05;0.30;;;0.30;;
14056;SDS011;7103;54.300;10.180;2023-08-12T00:17:34;0.30;;;0.30;;
14056;SDS011;7103;54.300;10.180;2023-08-12T00:20:07;0.30;;;0.30;;
14056;SDS011;7103;54.300;10.180;2023-08-12T00:22:37;0.30;;;0.30;;
14056;SDS011;7103;54.300;10.180;2023-08-12T00:25:05;0.30;;;0.30;;
14056;SDS011;7103;54.300;10.180;2023-08-12T00:27:32;0.30;;;0.30;;
14056;SDS011;7103;54.300;10.180;2023-08-12T00:29:59;0.30;;;0.30;;
14056;SDS011;7103;54.300;10.180;2023-08-12T00:32:26;0.30;;;0.30;;
14056;SDS011;7103;54.300;10.180;2023-08-12T00:34:53;0.30;;;0.30;;
14056;SDS011;7103;54.300;10.180;2023-08-12T00:37:20;0.30;;;0.30;;
14056;SDS011;7103;54.300;10.180;2023-08-12T00:39:47;0.30;;;0.30;;
14056;SDS011;7103;54.300;10.180;2023-08-12T00:42:14;0.30;;;0.30;;
14056;SDS011;7103;54.300;10.180;2023-08-12T00:44:41;0.30;;;0.30;;
14056;SDS011;7103;54.300;10.180;2023-08-12T00:47:09;0.30;;;0.30;;
14056;SDS011;7103;54.300;10.180;2023-08-12T00:49:36;0.30;;;0.30;;
14056;SDS011;7103;54.300;10.180;2023-08-12T00:52:06;0.30;;;0.30;;
14056;SDS011;7103;54.300;10.180;2023-08-12T00:54:33;0.30;;;0.30;;
14056;SDS011;7103;54.300;10.180;2023-08-12T00:57:00;0.30;;;0.30;;
14056;SDS011;7103;54.300;10.180;2023-08-12T00:59:27;0.30;;;0.30;;
14056;SDS011;7103;54.300;10.180;2023-08-12T01:01:54;0.30;;;0.30;;
14056;SDS011;7103;54.300;10.180;2023-08-12T01:04:21;0.30;;;0.30;;
14056;SDS011;7103;54.300;10.180;2023-08-12T01:06:48;0.30;;;0.30;;
14056;SDS011;7103;54.300;10.180;2023-08-12T01:09:15;0.30;;;0.30;;
14056;SDS011;7103;54.300;10.180;2023-08-12T01:12:26;0.30;;;0.30;;
14056;SDS011;7103;54.300;10.180;2023-08-12T01:15:21;0.30;;;0.30;;
14056;SDS011;7103;54.300;10.180;2023-08-12T01:17:33;0.30;;;0.30;;
14056;SDS011;7103;54.300;10.180;2023-08-12T01:20:05;0.40;;;0.40;;
14056;SDS011;7103;54.300;10.180;2023-08-12T01:22:40;0.30;;;0.30;;
14056;SDS011;7103;54.300;10.180;2023-08-12T01:25:10;0.30;;;0.30;;
14056;SDS011;7103;54.300;10.180;2023-08-12T01:27:37;0.30;;;0.30;;
14056;SDS011;7103;54.300;10.180;2023-08-12T01:30:04;0.30;;;0.30;;
14056;SDS011;7103;54.300;10.180;2023-08-12T01:32:51;0.30;;;0.30;;
14056;SDS011;7103;54.300;10.180;2023-08-12T01:35:24;0.30;;;0.30;;
14056;SDS011;7103;54.300;10.180;2023-08-12T01:37:52;0.30;;;0.30;;
14056;SDS011;7103;54.300;10.180;2023-08-12T01:40:21;0.30;;;0.30;;
14056;SDS011;7103;54.300;10.180;2023-08-12T01:42:48;0.40;;;0.40;;
14056;SDS011;7103;54.300;10.180;2023-08-12T01:45:15;0.30;;;0.30;;
14056;SDS011;7103;54.300;10.180;2023-08-12T01:47:44;0.30;;;0.30;;
14056;SDS011;7103;54.300;10.180;2023-08-12T01:50:11;0.30;;;0.30;;
14056;SDS011;7103;54.300;10.180;2023-08-12T01:52:38;0.30;;;0.30;;
14056;SDS011;7103;54.300;10.180;2023-08-12T01:55:05;0.30;;;0.30;;
14056;SDS011;7103;54.300;10.180;2023-08-12T01:57:32;0.30;;;0.30;;
14056;SDS011;7103;54.300;10.180;2023-08-12T02:00:00;0.30;;;0.30;;
14056;SDS011;7103;54.300;10.180;2023-08-12T02:02:27;0.30;;;0.30;;
14056;SDS011;7103;54.300;10.180;2023-08-12T02:04:55;0.30;;;0.30;;
14056;SDS011;7103;54.300;10.180;2023-08-12T02:07:21;0.30;;;0.30;;
14056;SDS011;7103;54.300;10.180;2023-08-12T02:09:48;0.30;;;0.30;;
14056;SDS011;7103;54.300;10.180;2023-08-12T02:12:15;0.40;;;0.40;;
14056;SDS011;7103;54.300;10.180;2023-08-12T02:14:42;0.30;;;0.30;;
14056;SDS011;7103;54.300;10.180;2023-08-12T02:17:09;0.30;;;0.30;;
14056;SDS011;7103;54.300;10.180;2023-08-12T02:19:37;0.30;;;0.30;;
14056;SDS011;7103;54.300;10.180;2023-08-12T02:22:04;0.30;;;0.30;;
14056;SDS011;7103;54.300;10.180;2023-08-12T02:24:31;0.30;;;0.30;;
14056;SDS011;7103;54.300;10.180;2023-08-12T02:26:58;0.30;;;0.30;;
14056;SDS011;7103;54.300;10.180;2023-08-12T02:29:25;0.30;;;0.30;;
14056;SDS011;7103;54.300;10.180;2023-08-12T02:31:52;0.40;;;0.40;;
14056;SDS011;7103;54.300;10.180;2023-08-12T02:34:19;0.30;;;0.30;;
14056;SDS011;7103;54.300;10.180;2023-08-12T02:36:46;0.30;;;0.30;;
14056;SDS011;7103;54.300;10.180;2023-08-12T02:39:13;0.30;;;0.30;;
14056;SDS011;7103;54.300;10.180;2023-08-12T02:41:40;0.30;;;0.30;;
14056;SDS011;7103;54.300;10.180;2023-08-12T02:44:07;0.30;;;0.30;;
14056;SDS011;7103;54.300;10.180;2023-08-12T02:46:33;0.30;;;0.30;;
14056;SDS011;7103;54.300;10.180;2023-08-12T02:49:00;0.30;;;0.30;;
14056;SDS011;7103;54.300;10.180;2023-08-12T02:51:27;0.30;;;0.30;;
14056;SDS011;7103;54.300;10.180;2023-08-12T02:53:54;0.30;;;0.30;;
14056;SDS011;7103;54.300;10.180;2023-08-12T02:56:21;0.30;;;0.30;;
14056;SDS011;7103;54.300;10.180;2023-08-12T02:58:48;0.40;;;0.40;;
14056;SDS011;7103;54.300;10.180;2023-08-12T03:01:15;0.30;;;0.30;;
14056;SDS011;7103;54.300;10.180;2023-08-12T03:03:42;0.30;;;0.30;;
14056;SDS011;7103;54.300;10.180;2023-08-12T03:06:09;0.30;;;0.30;;
14056;SDS011;7103;54.300;10.180;2023-08-12T03:08:36;0.40;;;0.40;;
14056;SDS011;7103;54.300;10.180;2023-08-12T03:11:03;0.30;;;0.30;;
14056;SDS011;7103;54.300;10.180;2023-08-12T03:13:30;0.30;;;0.30;;
14056;SDS011;7103;54.300;10.180;2023-08-12T03:15:57;0.30;;;0.30;;
14056;SDS011;7103;54.300;10.180;2023-08-12T03:18:24;0.30;;;0.30;;
14056;SDS011;7103;54.300;10.180;2023-08-12T03:20:51;0.30;;;0.30;;
14056;SDS011;7103;54.300;10.180;2023-08-12T03:23:18;0.30;;;0.30;;
14056;SDS011;7103;54.300;10.180;2023-08-12T03:25:46;0.30;;;0.30;;
14056;SDS011;7103;54.300;10.180;2023-08-12T03:28:16;0.30;;;0.30;;
14056;SDS011;7103;54.300;10.180;2023-08-12T03:30:49;0.30;;;0.30;;
14056;SDS011;7103;54.300;10.180;2023-08-12T03:33:19;0.30;;;0.30;;
14056;SDS011;7103;54.300;10.180;2023-08-12T03:35:47;0.30;;;0.30;;
14056;SDS011;7103;54.300;10.180;2023-08-12T03:38:15;0.30;;;0.30;;
14056;SDS011;7103;54.300;10.180;2023-08-12T03:40:42;0.40;;;0.40;;
14056;SDS011;7103;54.300;10.180;2023-08-12T03:43:09;0.30;;;0.30;;
14056;SDS011;7103;54.300;10.180;2023-08-12T03:45:40;0.30;;;0.30;;
14056;SDS011;7103;54.300;10.180;2023-08-12T03:48:08;0.30;;;0.30;;
14056;SDS011;7103;54.300;10.180;2023-08-12T03:50:35;0.30;;;0.30;;
14056;SDS011;7103;54.300;10.180;2023-08-12T03:53:03;0.30;;;0.30;;
14056;SDS011;7103;54.300;10.180;2023-08-12T03:55:31;0.40;;;0.40;;
14056;SDS011;7103;54.300;10.180;2023-08-12T03:57:59;0.30;;;0.30;;
14056;SDS011;7103;54.300;10.180;2023-08-12T04:00:26;0.30;;;0.30;;
14056;SDS011;7103;54.300;10.180;2023-08-12T04:02:53;0.30;;;0.30;;
14056;SDS011;7103;54.300;10.180;2023-08-12T04:05:20;0.30;;;0.30;;
14056;SDS011;7103;54.300;10.180;2023-08-12T04:07:47;0.30;;;0.30;;
14056;SDS011;7103;54.300;10.180;2023-08-12T04:10:14;0.30;;;0.30;;
14056;SDS011;7103;54.300;10.180;2023-08-12T04:12:41;0.30;;;0.30;;
14056;SDS011;7103;54.300;10.180;2023-08-12T04:15:09;0.30;;;0.30;;
14056;SDS011;7103;54.300;10.180;2023-08-12T04:17:37;0.30;;;0.30;;
14056;SDS011;7103;54.300;10.180;2023-08-12T04:20:07;0.30;;;0.30;;
14056;SDS011;7103;54.300;10.180;2023-08-12T04:22:34;0.30;;;0.30;;
14056;SDS011;7103;54.300;10.180;2023-08-12T04:25:01;0.30;;;0.30;;
14056;SDS011;7103;54.300;10.180;2023-08-12T04:27:29;0.30;;;0.30;;
14056;SDS011;7103;54.300;10.180;2023-08-12T04:29:56;0.30;;;0.30;;
14056;SDS011;7103;54.300;10.180;2023-08-12T04:32:22;0.30;;;0.30;;
14056;SDS011;7103;54.300;10.180;2023-08-12T04:34:49;0.30;;;0.30;;
14056;SDS011;7103;54.300;10.180;2023-08-12T04:37:16;0.30;;;0.30;;
14056;SDS011;7103;54.300;10.180;2023-08-12T04:39:43;0.30;;;0.30;;
14056;SDS011;7103;54.300;10.180;2023-08-12T04:42:11;0.30;;;0.30;;
14056;SDS011;7103;54.300;10.180;2023-08-12T04:44:38;0.30;;;0.30;;
14056;SDS011;7103;54.300;10.180;2023-08-12T04:47:05;0.30;;;0.30;;
14056;SDS011;7103;54.300;10.180;2023-08-12T04:49:32;0.30;;;0.30;;
14056;SDS011;7103;54.300;10.180;2023-08-12T04:51:59;0.30;;;0.30;;
14056;SDS011;7103;54.300;10.180;2023-08-12T04:54:26;0.30;;;0.30;;
14056;SDS011;7103;54.300;10.180;2023-08-12T04:56:53;0.30;;;0.30;;
14056;SDS011;7103;54.300;10.180;2023-08-12T04:59:20;0.30;;;0.30;;
14056;SDS011;7103;54.300;10.180;2023-08-12T05:01:47;0.30;;;0.30;;
14056;SDS011;7103;54.300;10.180;2023-08-12T05:04:29;0.30;;;0.30;;
14056;SDS011;7103;54.300;10.180;2023-08-12T05:06:56;0.30;;;0.30;;
14056;SDS011;7103;54.300;10.180;2023-08-12T05:09:23;0.30;;;0.30;;
14056;SDS011;7103;54.300;10.180;2023-08-12T05:11:50;0.30;;;0.30;;
14056;SDS011;7103;54.300;10.180;2023-08-12T05:14:17;0.30;;;0.30;;
14056;SDS011;7103;54.300;10.180;2023-08-12T05:16:44;0.30;;;0.30;;
14056;SDS011;7103;54.300;10.180;2023-08-12T05:19:11;0.30;;;0.30;;
14056;SDS011;7103;54.300;10.180;2023-08-12T05:21:37;0.30;;;0.30;;
14056;SDS011;7103;54.300;10.180;2023-08-12T05:24:04;0.30;;;0.30;;
14056;SDS011;7103;54.300;10.180;2023-08-12T05:26:33;0.30;;;0.30;;
14056;SDS011;7103;54.300;10.180;2023-08-12T05:29:00;0.30;;;0.30;;
14056;SDS011;7103;54.300;10.180;2023-08-12T05:31:27;0.30;;;0.30;;
14056;SDS011;7103;54.300;10.180;2023-08-12T05:33:54;0.30;;;0.30;;
14056;SDS011;7103;54.300;10.180;2023-08-12T05:36:21;0.30;;;0.30;;
14056;SDS011;7103;54.300;10.180;2023-08-12T05:38:48;0.30;;;0.30;;
14056;SDS011;7103;54.300;10.180;2023-08-12T05:41:15;0.30;;;0.30;;
14056;SDS011;7103;54.300;10.180;2023-08-12T05:43:42;0.30;;;0.30;;
14056;SDS011;7103;54.300;10.180;2023-08-12T05:46:10;0.30;;;0.30;;
14056;SDS011;7103;54.300;10.180;2023-08-12T05:48:38;0.30;;;0.30;;
14056;SDS011;7103;54.300;10.180;2023-08-12T05:51:05;0.30;;;0.30;;
14056;SDS011;7103;54.300;10.180;2023-08-12T05:53:32;0.30;;;0.30;;
14056;SDS011;7103;54.300;10.180;2023-08-12T05:55:59;0.30;;;0.30;;
14056;SDS011;7103;54.300;10.180;2023-08-12T05:58:26;0.30;;;0.30;;
14056;SDS011;7103;54.300;10.180;2023-08-12T06:00:53;0.20;;;0.20;;
14056;SDS011;7103;54.300;10.180;2023-08-12T06:03:20;0.30;;;0.30;;
14056;SDS011;7103;54.300;10.180;2023-08-12T06:05:47;0.20;;;0.20;;
14056;SDS011;7103;54.300;10.180;2023-08-12T06:08:15;0.30;;;0.30;;
14056;SDS011;7103;54.300;10.180;2023-08-12T06:10:42;0.20;;;0.20;;
14056;SDS011;7103;54.300;10.180;2023-08-12T06:13:09;0.30;;;0.30;;
14056;SDS011;7103;54.300;10.180;2023-08-12T06:15:36;0.30;;;0.30;;
14056;SDS011;7103;54.300;10.180;2023-08-12T06:18:03;0.30;;;0.30;;
14056;SDS011;7103;54.300;10.180;2023-08-12T06:20:30;0.30;;;0.30;;
14056;SDS011;7103;54.300;10.180;2023-08-12T06:22:57;0.20;;;0.20;;
14056;SDS011;7103;54.300;10.180;2023-08-12T06:25:24;0.20;;;0.20;;
14056;SDS011;7103;54.300;10.180;2023-08-12T06:27:51;0.20;;;0.20;;
14056;SDS011;7103;54.300;10.180;2023-08-12T06:30:17;0.30;;;0.30;;
14056;SDS011;7103;54.300;10.180;2023-08-12T06:32:44;0.23;;;0.23;;
14056;SDS011;7103;54.300;10.180;2023-08-12T06:35:12;0.20;;;0.20;;
14056;SDS011;7103;54.300;10.180;2023-08-12T06:37:38;0.27;;;0.27;;
14056;SDS011;7103;54.300;10.180;2023-08-12T06:40:06;0.30;;;0.30;;
14056;SDS011;7103;54.300;10.180;2023-08-12T06:42:33;0.30;;;0.30;;
14056;SDS011;7103;54.300;10.180;2023-08-12T06:45:00;0.30;;;0.30;;
14056;SDS011;7103;54.300;10.180;2023-08-12T06:47:27;0.30;;;0.30;;
14056;SDS011;7103;54.300;10.180;2023-08-12T06:49:56;0.20;;;0.20;;
14056;SDS011;7103;54.300;10.180;2023-08-12T06:52:23;0.30;;;0.30;;
14056;SDS011;7103;54.300;10.180;2023-08-12T06:54:50;0.20;;;0.20;;
14056;SDS011;7103;54.300;10.180;2023-08-12T06:57:17;0.27;;;0.27;;
14056;SDS011;7103;54.300;10.180;2023-08-12T06:59:44;0.27;;;0.27;;
14056;SDS011;7103;54.300;10.180;2023-08-12T07:02:11;0.20;;;0.20;;
14056;SDS011;7103;54.300;10.180;2023-08-12T07:04:38;0.20;;;0.20;;
14056;SDS011;7103;54.300;10.180;2023-08-12T07:07:05;0.20;;;0.20;;
14056;SDS011;7103;54.300;10.180;2023-08-12T07:09:32;0.20;;;0.20;;
14056;SDS011;7103;54.300;10.180;2023-08-12T07:11:59;0.20;;;0.20;;
14056;SDS011;7103;54.300;10.180;2023-08-12T07:14:27;0.30;;;0.30;;
14056;SDS011;7103;54.300;10.180;2023-08-12T07:16:54;0.20;;;0.20;;
14056;SDS011;7103;54.300;10.180;2023-08-12T07:19:22;0.20;;;0.20;;
14056;SDS011;7103;54.300;10.180;2023-08-12T07:21:49;0.20;;;0.20;;
14056;SDS011;7103;54.300;10.180;2023-08-12T07:24:16;0.20;;;0.20;;
14056;SDS011;7103;54.300;10.180;2023-08-12T07:26:43;0.20;;;0.20;;
14056;SDS011;7103;54.300;10.180;2023-08-12T07:29:10;0.20;;;0.20;;
14056;SDS011;7103;54.300;10.180;2023-08-12T07:31:37;0.20;;;0.20;;
14056;SDS011;7103;54.300;10.180;2023-08-12T07:34:04;0.30;;;0.30;;
14056;SDS011;7103;54.300;10.180;2023-08-12T07:36:31;0.20;;;0.20;;
14056;SDS011;7103;54.300;10.180;2023-08-12T07:38:59;0.20;;;0.20;;
14056;SDS011;7103;54.300;10.180;2023-08-12T07:41:26;0.30;;;0.30;;
14056;SDS011;7103;54.300;10.180;2023-08-12T07:43:54;0.20;;;0.20;;
14056;SDS011;7103;54.300;10.180;2023-08-12T07:46:21;0.20;;;0.20;;
14056;SDS011;7103;54.300;10.180;2023-08-12T07:48:48;0.20;;;0.20;;
14056;SDS011;7103;54.300;10.180;2023-08-12T07:51:15;0.23;;;0.23;;
14056;SDS011;7103;54.300;10.180;2023-08-12T07:53:42;0.20;;;0.20;;
14056;SDS011;7103;54.300;10.180;2023-08-12T07:56:09;0.20;;;0.20;;
14056;SDS011;7103;54.300;10.180;2023-08-12T07:58:36;0.30;;;0.30;;
14056;SDS011;7103;54.300;10.180;2023-08-12T08:01:03;0.20;;;0.20;;
14056;SDS011;7103;54.300;10.180;2023-08-12T08:03:31;0.20;;;0.20;;
14056;SDS011;7103;54.300;10.180;2023-08-12T08:05:58;0.20;;;0.20;;
14056;SDS011;7103;54.300;10.180;2023-08-12T08:08:25;0.30;;;0.30;;
14056;SDS011;7103;54.300;10.180;2023-08-12T08:10:52;0.20;;;0.20;;
14056;SDS011;7103;54.300;10.180;2023-08-12T08:13:19;0.20;;;0.20;;
14056;SDS011;7103;54.300;10.180;2023-08-12T08:15:45;0.30;;;0.30;;
14056;SDS011;7103;54.300;10.180;2023-08-12T08:18:12;0.30;;;0.30;;
14056;SDS011;7103;54.300;10.180;2023-08-12T08:20:41;0.20;;;0.20;;
14056;SDS011;7103;54.300;10.180;2023-08-12T08:23:11;0.20;;;0.20;;
14056;SDS011;7103;54.300;10.180;2023-08-12T08:25:38;0.20;;;0.20;;
14056;SDS011;7103;54.300;10.180;2023-08-12T08:28:05;0.20;;;0.20;;
14056;SDS011;7103;54.300;10.180;2023-08-12T08:30:32;0.20;;;0.20;;
14056;SDS011;7103;54.300;10.180;2023-08-12T08:32:59;0.20;;;0.20;;
14056;SDS011;7103;54.300;10.180;2023-08-12T08:35:26;0.20;;;0.20;;
14056;SDS011;7103;54.300;10.180;2023-08-12T08:37:53;0.20;;;0.20;;
14056;SDS011;7103;54.300;10.180;2023-08-12T08:40:20;0.30;;;0.30;;
14056;SDS011;7103;54.300;10.180;2023-08-12T08:42:49;0.20;;;0.20;;
14056;SDS011;7103;54.300;10.180;2023-08-12T08:45:20;0.20;;;0.20;;
14056;SDS011;7103;54.300;10.180;2023-08-12T08:47:49;0.20;;;0.20;;
14056;SDS011;7103;54.300;10.180;2023-08-12T08:50:18;0.20;;;0.20;;
14056;SDS011;7103;54.300;10.180;2023-08-12T08:52:45;0.20;;;0.20;;
14056;SDS011;7103;54.300;10.180;2023-08-12T08:55:13;0.20;;;0.20;;
14056;SDS011;7103;54.300;10.180;2023-08-12T08:57:40;0.20;;;0.20;;
14056;SDS011;7103;54.300;10.180;2023-08-12T09:00:13;0.20;;;0.20;;
14056;SDS011;7103;54.300;10.180;2023-08-12T09:02:45;0.20;;;0.20;;
14056;SDS011;7103;54.300;10.180;2023-08-12T09:05:14;0.20;;;0.20;;
14056;SDS011;7103;54.300;10.180;2023-08-12T09:07:42;0.20;;;0.20;;
14056;SDS011;7103;54.300;10.180;2023-08-12T09:10:10;0.20;;;0.20;;
14056;SDS011;7103;54.300;10.180;2023-08-12T09:12:44;0.20;;;0.20;;
14056;SDS011;7103;54.300;10.180;2023-08-12T09:15:13;0.20;;;0.20;;
14056;SDS011;7103;54.300;10.180;2023-08-12T09:17:42;0.20;;;0.20;;
14056;SDS011;7103;54.300;10.180;2023-08-12T09:20:09;0.20;;;0.20;;
14056;SDS011;7103;54.300;10.180;2023-08-12T09:22:40;0.20;;;0.20;;
14056;SDS011;7103;54.300;10.180;2023-08-12T09:25:08;0.20;;;0.20;;
14056;SDS011;7103;54.300;10.180;2023-08-12T09:27:35;0.20;;;0.20;;
14056;SDS011;7103;54.300;10.180;2023-08-12T09:30:06;0.23;;;0.23;;
14056;SDS011;7103;54.300;10.180;2023-08-12T09:32:35;0.20;;;0.20;;
14056;SDS011;7103;54.300;10.180;2023-08-12T09:35:02;0.20;;;0.20;;
14056;SDS011;7103;54.300;10.180;2023-08-12T09:37:30;0.20;;;0.20;;
14056;SDS011;7103;54.300;10.180;2023-08-12T09:39:57;0.30;;;0.30;;
14056;SDS011;7103;54.300;10.180;2023-08-12T09:42:24;0.20;;;0.20;;
14056;SDS011;7103;54.300;10.180;2023-08-12T09:44:52;0.30;;;0.30;;
14056;SDS011;7103;54.300;10.180;2023-08-12T09:47:19;0.30;;;0.30;;
14056;SDS011;7103;54.300;10.180;2023-08-12T09:49:46;0.30;;;0.30;;
14056;SDS011;7103;54.300;10.180;2023-08-12T09:52:13;0.30;;;0.30;;
14056;SDS011;7103;54.300;10.180;2023-08-12T09:54:41;0.30;;;0.30;;
14056;SDS011;7103;54.300;10.180;2023-08-12T09:57:09;0.20;;;0.20;;
14056;SDS011;7103;54.300;10.180;2023-08-12T09:59:38;0.20;;;0.20;;
14056;SDS011;7103;54.300;10.180;2023-08-12T10:02:07;0.20;;;0.20;;
14056;SDS011;7103;54.300;10.180;2023-08-12T10:04:45;0.20;;;0.20;;
14056;SDS011;7103;54.300;10.180;2023-08-12T10:07:12;0.20;;;0.20;;
14056;SDS011;7103;54.300;10.180;2023-08-12T10:09:40;0.20;;;0.20;;
14056;SDS011;7103;54.300;10.180;2023-08-12T10:12:08;0.30;;;0.30;;
14056;SDS011;7103;54.300;10.180;2023-08-12T10:14:36;0.20;;;0.20;;
14056;SDS011;7103;54.300;10.180;2023-08-12T10:17:04;0.20;;;0.20;;
14056;SDS011;7103;54.300;10.180;2023-08-12T10:19:32;0.30;;;0.30;;
14056;SDS011;7103;54.300;10.180;2023-08-12T10:22:00;0.20;;;0.20;;
14056;SDS011;7103;54.300;10.180;2023-08-12T10:24:30;0.30;;;0.30;;
14056;SDS011;7103;54.300;10.180;2023-08-12T10:27:00;0.30;;;0.30;;
14056;SDS011;7103;54.300;10.180;2023-08-12T10:29:29;0.30;;;0.30;;
14056;SDS011;7103;54.300;10.180;2023-08-12T10:31:57;0.30;;;0.30;;
14056;SDS011;7103;54.300;10.180;2023-08-12T10:34:24;0.30;;;0.30;;
14056;SDS011;7103;54.300;10.180;2023-08-12T10:36:55;0.23;;;0.23;;
14056;SDS011;7103;54.300;10.180;2023-08-12T10:39:33;0.30;;;0.30;;
14056;SDS011;7103;54.300;10.180;2023-08-12T10:42:00;0.30;;;0.30;;
14056;SDS011;7103;54.300;10.180;2023-08-12T10:44:38;0.30;;;0.30;;
14056;SDS011;7103;54.300;10.180;2023-08-12T10:47:10;0.20;;;0.20;;
14056;SDS011;7103;54.300;10.180;2023-08-12T10:49:38;0.30;;;0.30;;
14056;SDS011;7103;54.300;10.180;2023-08-12T10:55:20;0.27;;;0.27;;
14056;SDS011;7103;54.300;10.180;2023-08-12T10:57:52;0.20;;;0.20;;
14056;SDS011;7103;54.300;10.180;2023-08-12T11:00:23;0.30;;;0.30;;
14056;SDS011;7103;54.300;10.180;2023-08-12T11:02:52;0.20;;;0.20;;
14056;SDS011;7103;54.300;10.180;2023-08-12T11:05:20;0.30;;;0.30;;
14056;SDS011;7103;54.300;10.180;2023-08-12T11:07:58;0.30;;;0.30;;
14056;SDS011;7103;54.300;10.180;2023-08-12T11:10:30;0.30;;;0.30;;
14056;SDS011;7103;54.300;10.180;2023-08-12T11:13:00;0.20;;;0.20;;
14056;SDS011;7103;54.300;10.180;2023-08-12T11:20:33;0.30;;;0.30;;
14056;SDS011;7103;54.300;10.180;2023-08-12T11:23:01;0.20;;;0.20;;
14056;SDS011;7103;54.300;10.180;2023-08-12T11:25:30;0.20;;;0.20;;
14056;SDS011;7103;54.300;10.180;2023-08-12T11:27:58;0.30;;;0.30;;
14056;SDS011;7103;54.300;10.180;2023-08-12T11:30:26;0.30;;;0.30;;
14056;SDS011;7103;54.300;10.180;2023-08-12T11:32:58;0.23;;;0.23;;
14056;SDS011;7103;54.300;10.180;2023-08-12T11:35:26;0.30;;;0.30;;
14056;SDS011;7103;54.300;10.180;2023-08-12T11:37:55;0.20;;;0.20;;
14056;SDS011;7103;54.300;10.180;2023-08-12T11:40:24;0.20;;;0.20;;
14056;SDS011;7103;54.300;10.180;2023-08-12T11:42:52;0.30;;;0.30;;
14056;SDS011;7103;54.300;10.180;2023-08-12T11:45:21;0.30;;;0.30;;
14056;SDS011;7103;54.300;10.180;2023-08-12T11:47:49;0.30;;;0.30;;
14056;SDS011;7103;54.300;10.180;2023-08-12T11:50:21;0.30;;;0.30;;
14056;SDS011;7103;54.300;10.180;2023-08-12T11:52:53;0.30;;;0.30;;
14056;SDS011;7103;54.300;10.180;2023-08-12T11:55:21;0.30;;;0.30;;
14056;SDS011;7103;54.300;10.180;2023-08-12T11:57:50;0.30;;;0.30;;
14056;SDS011;7103;54.300;10.180;2023-08-12T12:00:18;0.30;;;0.30;;
14056;SDS011;7103;54.300;10.180;2023-08-12T12:02:47;0.30;;;0.30;;
14056;SDS011;7103;54.300;10.180;2023-08-12T12:05:17;0.30;;;0.30;;
14056;SDS011;7103;54.300;10.180;2023-08-12T12:07:49;0.30;;;0.30;;
14056;SDS011;7103;54.300;10.180;2023-08-12T12:10:20;0.30;;;0.30;;
14056;SDS011;7103;54.300;10.180;2023-08-12T12:12:58;0.30;;;0.30;;
14056;SDS011;7103;54.300;10.180;2023-08-12T12:15:26;0.30;;;0.30;;
14056;SDS011;7103;54.300;10.180;2023-08-12T12:17:53;0.30;;;0.30;;
14056;SDS011;7103;54.300;10.180;2023-08-12T12:20:21;0.30;;;0.30;;
14056;SDS011;7103;54.300;10.180;2023-08-12T12:22:48;0.30;;;0.30;;
14056;SDS011;7103;54.300;10.180;2023-08-12T12:25:16;0.30;;;0.30;;
14056;SDS011;7103;54.300;10.180;2023-08-12T12:27:47;0.30;;;0.30;;
14056;SDS011;7103;54.300;10.180;2023-08-12T12:30:15;0.30;;;0.30;;
14056;SDS011;7103;54.300;10.180;2023-08-12T12:32:42;0.30;;;0.30;;
14056;SDS011;7103;54.300;10.180;2023-08-12T12:35:10;0.30;;;0.30;;
14056;SDS011;7103;54.300;10.180;2023-08-12T12:37:38;0.30;;;0.30;;
14056;SDS011;7103;54.300;10.180;2023-08-12T12:40:05;0.20;;;0.20;;
14056;SDS011;7103;54.300;10.180;2023-08-12T12:42:33;0.30;;;0.30;;
14056;SDS011;7103;54.300;10.180;2023-08-12T12:45:00;0.20;;;0.20;;
14056;SDS011;7103;54.300;10.180;2023-08-12T12:47:27;0.20;;;0.20;;
14056;SDS011;7103;54.300;10.180;2023-08-12T12:49:54;0.20;;;0.20;;
14056;SDS011;7103;54.300;10.180;2023-08-12T12:52:21;0.20;;;0.20;;
14056;SDS011;7103;54.300;10.180;2023-08-12T12:54:48;0.20;;;0.20;;
14056;SDS011;7103;54.300;10.180;2023-08-12T12:57:15;0.20;;;0.20;;
14056;SDS011;7103;54.300;10.180;2023-08-12T12:59:42;0.30;;;0.30;;
14056;SDS011;7103;54.300;10.180;2023-08-12T13:02:08;0.20;;;0.20;;
14056;SDS011;7103;54.300;10.180;2023-08-12T13:04:36;0.30;;;0.30;;
14056;SDS011;7103;54.300;10.180;2023-08-12T13:07:03;0.20;;;0.20;;
14056;SDS011;7103;54.300;10.180;2023-08-12T13:09:30;0.20;;;0.20;;
14056;SDS011;7103;54.300;10.180;2023-08-12T13:11:57;0.20;;;0.20;;
14056;SDS011;7103;54.300;10.180;2023-08-12T13:14:24;0.20;;;0.20;;
14056;SDS011;7103;54.300;10.180;2023-08-12T13:16:51;0.10;;;0.10;;
14056;SDS011;7103;54.300;10.180;2023-08-12T13:19:18;0.20;;;0.20;;
14056;SDS011;7103;54.300;10.180;2023-08-12T13:21:45;0.10;;;0.10;;
14056;SDS011;7103;54.300;10.180;2023-08-12T13:24:12;0.20;;;0.20;;
14056;SDS011;7103;54.300;10.180;2023-08-12T13:26:39;0.10;;;0.10;;
14056;SDS011;7103;54.300;10.180;2023-08-12T13:29:06;0.10;;;0.10;;
14056;SDS011;7103;54.300;10.180;2023-08-12T13:31:33;0.10;;;0.10;;
14056;SDS011;7103;54.300;10.180;2023-08-12T13:34:00;0.20;;;0.20;;
14056;SDS011;7103;54.300;10.180;2023-08-12T13:36:27;0.20;;;0.20;;
14056;SDS011;7103;54.300;10.180;2023-08-12T13:38:54;0.10;;;0.10;;
14056;SDS011;7103;54.300;10.180;2023-08-12T13:41:21;0.10;;;0.10;;
14056;SDS011;7103;54.300;10.180;2023-08-12T13:43:48;0.10;;;0.10;;
14056;SDS011;7103;54.300;10.180;2023-08-12T13:46:15;0.10;;;0.10;;
14056;SDS011;7103;54.300;10.180;2023-08-12T13:48:42;0.17;;;0.17;;
14056;SDS011;7103;54.300;10.180;2023-08-12T13:51:08;0.10;;;0.10;;
14056;SDS011;7103;54.300;10.180;2023-08-12T13:53:35;0.20;;;0.20;;
14056;SDS011;7103;54.300;10.180;2023-08-12T13:56:03;0.10;;;0.10;;
14056;SDS011;7103;54.300;10.180;2023-08-12T13:58:30;0.10;;;0.10;;
14056;SDS011;7103;54.300;10.180;2023-08-12T14:00:57;0.10;;;0.10;;
14056;SDS011;7103;54.300;10.180;2023-08-12T14:03:24;0.20;;;0.20;;
14056;SDS011;7103;54.300;10.180;2023-08-12T14:05:51;0.20;;;0.20;;
14056;SDS011;7103;54.300;10.180;2023-08-12T14:08:18;0.10;;;0.10;;
14056;SDS011;7103;54.300;10.180;2023-08-12T14:10:45;0.10;;;0.10;;
14056;SDS011;7103;54.300;10.180;2023-08-12T14:13:13;0.20;;;0.20;;
14056;SDS011;7103;54.300;10.180;2023-08-12T14:15:40;0.20;;;0.20;;
14056;SDS011;7103;54.300;10.180;2023-08-12T14:18:07;0.20;;;0.20;;
14056;SDS011;7103;54.300;10.180;2023-08-12T14:20:34;0.20;;;0.20;;
14056;SDS011;7103;54.300;10.180;2023-08-12T14:23:01;0.20;;;0.20;;
14056;SDS011;7103;54.300;10.180;2023-08-12T14:25:28;0.20;;;0.20;;
14056;SDS011;7103;54.300;10.180;2023-08-12T14:27:56;0.20;;;0.20;;
14056;SDS011;7103;54.300;10.180;2023-08-12T14:30:23;0.20;;;0.20;;
14056;SDS011;7103;54.300;10.180;2023-08-12T14:32:52;0.20;;;0.20;;
14056;SDS011;7103;54.300;10.180;2023-08-12T14:35:19;0.20;;;0.20;;
14056;SDS011;7103;54.300;10.180;2023-08-12T14:37:46;0.10;;;0.10;;
14056;SDS011;7103;54.300;10.180;2023-08-12T14:40:13;0.20;;;0.20;;
14056;SDS011;7103;54.300;10.180;2023-08-12T14:42:40;0.13;;;0.13;;
14056;SDS011;7103;54.300;10.180;2023-08-12T14:45:07;0.20;;;0.20;;
14056;SDS011;7103;54.300;10.180;2023-08-12T14:47:35;0.20;;;0.20;;
14056;SDS011;7103;54.300;10.180;2023-08-12T14:50:02;0.20;;;0.20;;
14056;SDS011;7103;54.300;10.180;2023-08-12T14:52:30;0.20;;;0.20;;
14056;SDS011;7103;54.300;10.180;2023-08-12T14:54:57;0.20;;;0.20;;
14056;SDS011;7103;54.300;10.180;2023-08-12T14:57:24;0.20;;;0.20;;
14056;SDS011;7103;54.300;10.180;2023-08-12T14:59:51;0.20;;;0.20;;